createdAt,value
2017-12-16T00:01:43.002Z,3.27
2017-12-16T00:04:10.442Z,3.10
2017-12-16T00:06:38.096Z,3.27
2017-12-16T00:09:05.546Z,3.00
2017-12-16T00:11:32.987Z,3.50
2017-12-16T00:14:00.515Z,3.57
2017-12-16T00:16:27.972Z,3.03
2017-12-16T00:18:55.429Z,2.70
2017-12-16T00:21:22.933Z,2.40
2017-12-16T00:23:50.379Z,2.73
2017-12-16T00:26:17.832Z,2.60
2017-12-16T00:28:45.354Z,2.33
2017-12-16T00:31:12.801Z,2.50
2017-12-16T00:33:40.264Z,2.87
2017-12-16T00:36:07.739Z,3.13
2017-12-16T00:38:35.173Z,2.80
2017-12-16T00:41:02.624Z,3.00
2017-12-16T00:43:30.113Z,3.27
2017-12-16T00:45:57.552Z,2.40
2017-12-16T00:48:25.005Z,2.50
2017-12-16T00:50:52.505Z,2.10
2017-12-16T00:53:19.958Z,2.57
2017-12-16T00:55:47.395Z,3.00
2017-12-16T00:58:14.896Z,2.77
2017-12-16T01:00:42.375Z,2.90
2017-12-16T01:03:09.816Z,2.37
2017-12-16T01:05:37.765Z,3.40
2017-12-16T01:08:05.208Z,3.00
2017-12-16T01:10:32.688Z,2.27
2017-12-16T01:13:00.209Z,2.53
2017-12-16T01:15:27.661Z,2.80
2017-12-16T01:17:55.103Z,2.30
2017-12-16T01:20:22.702Z,2.27
2017-12-16T01:22:50.151Z,1.70
2017-12-16T01:25:17.587Z,1.37
2017-12-16T01:27:45.068Z,1.80
2017-12-16T01:30:12.525Z,2.47
2017-12-16T01:32:39.967Z,2.03
2017-12-16T01:35:19.551Z,2.03
2017-12-16T01:37:58.694Z,2.10
2017-12-16T01:40:26.187Z,2.13
2017-12-16T01:42:53.639Z,2.30
2017-12-16T01:45:21.091Z,1.90
2017-12-16T01:47:48.555Z,1.30
2017-12-16T01:50:16.027Z,1.73
2017-12-16T01:52:43.483Z,1.53
2017-12-16T01:55:10.939Z,1.23
2017-12-16T01:57:38.421Z,1.33
2017-12-16T02:00:05.868Z,1.40
2017-12-16T02:02:33.311Z,1.87
2017-12-16T02:05:00.791Z,1.87
2017-12-16T02:07:28.239Z,2.00
2017-12-16T02:09:55.688Z,1.53
2017-12-16T02:12:23.291Z,1.77
2017-12-16T02:14:50.735Z,1.10
2017-12-16T02:17:18.175Z,1.90
2017-12-16T02:19:45.666Z,1.50
2017-12-16T02:22:13.107Z,1.27
2017-12-16T02:24:40.575Z,1.50
2017-12-16T02:27:08.023Z,1.10
2017-12-16T02:29:35.460Z,1.00
2017-12-16T02:32:03.073Z,1.10
2017-12-16T02:34:30.524Z,1.40
2017-12-16T02:36:57.971Z,1.30
2017-12-16T02:39:25.435Z,1.60
2017-12-16T02:41:52.904Z,1.00
2017-12-16T02:44:20.593Z,1.33
2017-12-16T02:46:48.037Z,1.37
2017-12-16T02:49:15.484Z,1.53
2017-12-16T02:51:42.948Z,1.20
2017-12-16T02:54:10.389Z,1.77
2017-12-16T02:56:37.878Z,1.90
2017-12-16T02:59:05.319Z,0.90
2017-12-16T03:01:32.772Z,1.87
2017-12-16T03:04:01.138Z,1.37
2017-12-16T03:06:28.589Z,1.50
2017-12-16T03:08:56.042Z,2.20
2017-12-16T03:11:23.519Z,1.50
2017-12-16T03:13:51.011Z,1.40
2017-12-16T03:16:18.460Z,1.60
2017-12-16T03:18:46.017Z,1.50
2017-12-16T03:21:13.467Z,1.80
2017-12-16T03:23:40.916Z,1.50
2017-12-16T03:26:08.408Z,1.70
2017-12-16T03:28:35.857Z,2.43
2017-12-16T03:31:03.309Z,1.87
2017-12-16T03:33:30.787Z,2.00
2017-12-16T03:35:58.231Z,1.67
2017-12-16T03:38:25.687Z,2.10
2017-12-16T03:40:53.178Z,1.93
2017-12-16T03:43:20.630Z,1.37
2017-12-16T03:45:48.099Z,2.20
2017-12-16T03:48:15.590Z,1.70
2017-12-16T03:50:43.043Z,1.90
2017-12-16T03:53:10.501Z,1.90
2017-12-16T03:55:37.983Z,1.83
2017-12-16T03:58:05.430Z,1.10
2017-12-16T04:00:32.872Z,1.40
2017-12-16T04:03:00.382Z,1.23
2017-12-16T04:05:27.833Z,1.33
2017-12-16T04:07:55.294Z,1.37
2017-12-16T04:10:22.764Z,1.37
2017-12-16T04:12:50.200Z,1.30
2017-12-16T04:15:17.680Z,1.17
2017-12-16T04:17:45.115Z,1.40
2017-12-16T04:20:12.567Z,1.07
2017-12-16T04:22:40.064Z,1.23
2017-12-16T04:25:07.517Z,1.00
2017-12-16T04:27:34.967Z,1.40
2017-12-16T04:30:02.582Z,1.77
2017-12-16T04:32:30.031Z,1.30
2017-12-16T04:34:57.486Z,1.30
2017-12-16T04:37:25.124Z,1.90
2017-12-16T04:39:52.568Z,1.37
2017-12-16T04:42:20.107Z,1.37
2017-12-16T04:44:47.575Z,1.30
2017-12-16T04:47:15.036Z,1.57
2017-12-16T04:49:42.535Z,1.13
2017-12-16T04:52:09.994Z,1.40
2017-12-16T04:54:37.449Z,1.43
2017-12-16T04:57:04.962Z,1.23
2017-12-16T04:59:32.442Z,1.40
2017-12-16T05:01:59.904Z,1.30
2017-12-16T05:04:27.392Z,1.00
2017-12-16T05:06:54.837Z,1.30
2017-12-16T05:09:22.287Z,1.17
2017-12-16T05:11:49.793Z,1.10
2017-12-16T05:14:17.280Z,1.13
2017-12-16T05:16:44.771Z,1.00
2017-12-16T05:19:12.259Z,1.47
2017-12-16T05:21:39.699Z,1.17
2017-12-16T05:24:07.335Z,1.20
2017-12-16T05:26:34.789Z,1.40
2017-12-16T05:29:02.243Z,1.70
2017-12-16T05:31:29.703Z,1.30
2017-12-16T05:33:57.199Z,1.50
2017-12-16T05:36:24.680Z,1.30
2017-12-16T05:38:52.124Z,1.30
2017-12-16T05:41:19.567Z,1.40
2017-12-16T05:43:47.039Z,1.30
2017-12-16T05:46:14.476Z,1.47
2017-12-16T05:48:41.927Z,1.50
2017-12-16T05:51:09.427Z,1.17
2017-12-16T05:53:36.876Z,1.10
2017-12-16T05:56:04.324Z,1.33
2017-12-16T05:58:31.783Z,1.93
2017-12-16T06:00:59.220Z,1.40
2017-12-16T06:03:26.707Z,1.37
2017-12-16T06:05:54.154Z,1.30
2017-12-16T06:08:21.595Z,1.40
2017-12-16T06:10:49.184Z,1.37
2017-12-16T06:13:16.638Z,1.43
2017-12-16T06:15:44.109Z,1.37
2017-12-16T06:18:11.579Z,1.20
2017-12-16T06:20:39.029Z,1.30
2017-12-16T06:23:06.473Z,1.63
2017-12-16T06:25:33.955Z,1.60
2017-12-16T06:28:01.403Z,1.67
2017-12-16T06:30:28.847Z,1.63
2017-12-16T06:32:56.340Z,1.80
2017-12-16T06:35:23.785Z,1.37
2017-12-16T06:37:51.223Z,1.17
2017-12-16T06:40:18.706Z,1.20
2017-12-16T06:42:46.162Z,1.70
2017-12-16T06:45:13.755Z,1.70
2017-12-16T06:47:41.256Z,2.00
2017-12-16T06:52:42.704Z,1.60
2017-12-16T06:55:10.161Z,2.20
2017-12-16T06:57:37.608Z,3.03
2017-12-16T07:00:05.064Z,2.23
2017-12-16T07:02:32.508Z,1.97
2017-12-16T07:05:00.011Z,2.33
2017-12-16T07:07:27.466Z,2.30
2017-12-16T07:09:54.901Z,1.47
2017-12-16T07:12:22.547Z,1.63
2017-12-16T07:14:49.999Z,1.47
2017-12-16T07:17:17.472Z,1.90
2017-12-16T07:19:44.939Z,1.80
2017-12-16T07:22:12.395Z,2.30
2017-12-16T07:24:39.855Z,1.90
2017-12-16T07:27:07.344Z,1.80
2017-12-16T07:29:34.792Z,2.00
2017-12-16T07:32:02.240Z,2.30
2017-12-16T07:34:29.869Z,2.00
2017-12-16T07:36:57.343Z,1.80
2017-12-16T07:39:24.776Z,1.93
2017-12-16T07:41:52.243Z,2.33
2017-12-16T07:44:19.700Z,2.87
2017-12-16T07:46:47.147Z,2.00
2017-12-16T07:49:14.616Z,2.80
2017-12-16T07:51:42.071Z,2.73
2017-12-16T07:54:09.515Z,2.43
2017-12-16T07:56:37.031Z,2.70
2017-12-16T07:59:04.475Z,2.03
2017-12-16T08:01:31.939Z,2.37
2017-12-16T08:03:59.641Z,2.60
2017-12-16T08:06:27.093Z,2.10
2017-12-16T08:08:54.562Z,2.70
2017-12-16T08:11:22.150Z,2.60
2017-12-16T08:13:49.590Z,2.60
2017-12-16T08:16:17.041Z,2.27
2017-12-16T08:18:44.522Z,1.97
2017-12-16T08:21:11.963Z,2.47
2017-12-16T08:23:39.411Z,2.47
2017-12-16T08:26:06.895Z,2.17
2017-12-16T08:28:34.367Z,2.27
2017-12-16T08:31:01.814Z,2.37
2017-12-16T08:33:29.292Z,2.23
2017-12-16T08:35:56.749Z,3.00
2017-12-16T08:38:24.208Z,2.33
2017-12-16T08:40:51.892Z,2.57
2017-12-16T08:43:19.373Z,2.67
2017-12-16T08:45:46.837Z,2.13
2017-12-16T08:48:14.331Z,2.47
2017-12-16T08:50:41.787Z,2.27
2017-12-16T08:53:09.238Z,2.80
2017-12-16T08:55:36.713Z,5.40
2017-12-16T08:58:04.152Z,2.70
2017-12-16T09:00:31.607Z,3.07
2017-12-16T09:02:59.090Z,3.03
2017-12-16T09:05:26.540Z,3.00
2017-12-16T09:07:54.042Z,3.23
2017-12-16T09:10:21.488Z,2.77
2017-12-16T09:12:48.944Z,3.67
2017-12-16T09:15:16.510Z,4.60
2017-12-16T09:17:43.960Z,3.70
2017-12-16T09:20:11.424Z,3.77
2017-12-16T09:22:38.901Z,3.30
2017-12-16T09:25:06.369Z,4.03
2017-12-16T09:27:33.898Z,4.22
2017-12-16T09:30:01.369Z,3.23
2017-12-16T09:32:28.851Z,4.07
2017-12-16T09:34:56.309Z,3.20
2017-12-16T09:37:23.756Z,3.20
2017-12-16T09:39:51.235Z,4.10
2017-12-16T09:42:18.690Z,3.70
2017-12-16T09:44:46.156Z,4.00
2017-12-16T09:47:13.655Z,5.27
2017-12-16T09:49:41.116Z,3.93
2017-12-16T09:52:08.581Z,3.80
2017-12-16T09:54:36.056Z,3.70
2017-12-16T09:57:03.508Z,4.20
2017-12-16T09:59:30.991Z,5.23
2017-12-16T10:01:58.439Z,4.70
2017-12-16T10:04:25.892Z,4.20
2017-12-16T10:06:53.535Z,4.93
2017-12-16T10:09:20.992Z,5.03
2017-12-16T10:11:48.446Z,5.00
2017-12-16T10:14:16.811Z,6.83
2017-12-16T10:16:44.262Z,5.33
2017-12-16T10:19:11.715Z,5.33
2017-12-16T10:21:39.242Z,5.63
2017-12-16T10:24:06.694Z,5.37
2017-12-16T10:26:34.218Z,5.00
2017-12-16T10:29:01.672Z,4.67
2017-12-16T10:31:29.126Z,5.30
2017-12-16T10:33:56.729Z,4.87
2017-12-16T10:36:24.179Z,5.53
2017-12-16T10:38:51.696Z,4.93
2017-12-16T10:41:19.302Z,5.20
2017-12-16T10:43:46.744Z,5.30
2017-12-16T10:46:14.191Z,5.93
2017-12-16T10:48:41.866Z,5.50
2017-12-16T10:51:09.306Z,5.10
2017-12-16T10:53:36.760Z,5.00
2017-12-16T10:56:04.547Z,5.47
2017-12-16T10:58:32.171Z,5.40
2017-12-16T11:00:59.612Z,5.40
2017-12-16T11:03:27.090Z,5.03
2017-12-16T11:05:54.539Z,5.33
2017-12-16T11:08:22.029Z,4.73
2017-12-16T11:10:49.484Z,5.47
2017-12-16T11:13:16.941Z,4.70
2017-12-16T11:15:44.430Z,5.23
2017-12-16T11:18:11.881Z,4.90
2017-12-16T11:20:39.338Z,5.27
2017-12-16T11:23:06.821Z,5.00
2017-12-16T11:25:34.273Z,5.13
2017-12-16T11:28:01.732Z,5.13
2017-12-16T11:30:29.398Z,5.40
2017-12-16T11:32:56.850Z,5.63
2017-12-16T11:35:24.299Z,5.23
2017-12-16T11:37:52.894Z,5.37
2017-12-16T11:40:20.350Z,5.07
2017-12-16T11:42:47.804Z,5.70
2017-12-16T11:45:15.416Z,6.33
2017-12-16T11:47:42.891Z,7.00
2017-12-16T11:50:10.335Z,5.10
2017-12-16T11:52:37.941Z,5.70
2017-12-16T11:55:05.393Z,5.73
2017-12-16T11:57:32.848Z,3.97
2017-12-16T12:00:00.336Z,4.40
2017-12-16T12:02:27.827Z,4.60
2017-12-16T12:04:55.284Z,3.80
2017-12-16T12:07:22.773Z,4.33
2017-12-16T12:09:50.229Z,5.37
2017-12-16T12:12:17.692Z,3.97
2017-12-16T12:14:45.259Z,4.83
2017-12-16T12:17:12.711Z,4.70
2017-12-16T12:19:40.171Z,4.53
2017-12-16T12:22:07.664Z,4.47
2017-12-16T12:24:35.107Z,4.13
2017-12-16T12:27:02.556Z,5.10
2017-12-16T12:29:30.052Z,4.20
2017-12-16T12:31:57.503Z,4.40
2017-12-16T12:34:24.949Z,5.70
2017-12-16T12:36:52.640Z,4.67
2017-12-16T12:39:20.096Z,4.27
2017-12-16T12:41:47.556Z,4.30
2017-12-16T12:44:15.028Z,4.87
2017-12-16T12:46:42.485Z,4.50
2017-12-16T12:49:09.988Z,4.23
2017-12-16T12:51:37.426Z,4.40
2017-12-16T12:54:04.897Z,4.50
2017-12-16T12:56:32.361Z,4.00
2017-12-16T12:58:59.811Z,4.30
2017-12-16T13:01:27.295Z,3.60
2017-12-16T13:03:54.739Z,2.90
2017-12-16T13:06:22.187Z,4.20
2017-12-16T13:08:49.669Z,4.13
2017-12-16T13:11:17.111Z,3.73
2017-12-16T13:13:44.553Z,3.70
2017-12-16T13:16:12.005Z,3.60
2017-12-16T13:18:39.459Z,3.33
2017-12-16T13:21:06.983Z,3.63
2017-12-16T13:23:34.451Z,3.97
2017-12-16T13:26:01.897Z,3.07
2017-12-16T13:28:29.391Z,3.43
2017-12-16T13:30:56.863Z,3.50
2017-12-16T13:33:24.315Z,3.20
2017-12-16T13:35:51.798Z,3.30
2017-12-16T13:38:19.250Z,3.13
2017-12-16T13:40:46.696Z,3.40
2017-12-16T13:43:14.163Z,3.30
2017-12-16T13:45:41.608Z,3.43
2017-12-16T13:48:09.099Z,3.20
2017-12-16T13:50:36.543Z,3.57
2017-12-16T13:53:03.983Z,4.17
2017-12-16T13:55:31.633Z,3.73
2017-12-16T13:57:59.076Z,5.03
2017-12-16T14:00:26.515Z,5.10
2017-12-16T14:02:53.977Z,5.30
2017-12-16T14:05:21.432Z,5.37
2017-12-16T14:07:48.918Z,6.60
2017-12-16T14:10:16.358Z,6.30
2017-12-16T14:12:43.817Z,6.60
2017-12-16T14:15:11.396Z,5.97
2017-12-16T14:17:38.840Z,5.93
2017-12-16T14:20:06.294Z,7.30
2017-12-16T14:22:33.800Z,7.20
2017-12-16T14:25:01.257Z,6.83
2017-12-16T14:27:28.713Z,7.10
2017-12-16T14:29:56.178Z,7.03
2017-12-16T14:32:23.632Z,6.17
2017-12-16T14:34:51.091Z,7.50
2017-12-16T14:37:18.544Z,7.87
2017-12-16T14:39:46.082Z,6.60
2017-12-16T14:42:13.527Z,8.03
2017-12-16T14:44:41.007Z,6.83
2017-12-16T14:47:08.463Z,6.93
2017-12-16T14:49:35.911Z,7.40
2017-12-16T14:52:03.372Z,8.80
2017-12-16T14:54:30.824Z,8.90
2017-12-16T14:56:58.302Z,8.33
2017-12-16T14:59:25.753Z,8.90
2017-12-16T15:01:53.196Z,9.90
2017-12-16T15:04:20.679Z,8.73
2017-12-16T15:06:48.127Z,8.80
2017-12-16T15:09:15.592Z,10.10
2017-12-16T15:11:43.067Z,8.97
2017-12-16T15:14:10.526Z,9.77
2017-12-16T15:16:37.981Z,9.30
2017-12-16T15:19:05.487Z,10.67
2017-12-16T15:21:32.952Z,11.87
2017-12-16T15:24:00.408Z,11.50
2017-12-16T15:26:28.097Z,11.00
2017-12-16T15:28:55.545Z,11.73
2017-12-16T15:31:22.990Z,11.40
2017-12-16T15:33:50.580Z,12.33
2017-12-16T15:36:18.034Z,12.33
2017-12-16T15:38:45.490Z,12.17
2017-12-16T15:41:12.971Z,12.87
2017-12-16T15:43:40.449Z,11.67
2017-12-16T15:46:07.911Z,11.80
2017-12-16T15:48:35.413Z,11.63
2017-12-16T15:51:02.875Z,13.00
2017-12-16T15:53:30.327Z,11.30
2017-12-16T15:55:57.931Z,12.20
2017-12-16T15:58:25.391Z,13.60
2017-12-16T16:00:52.836Z,12.77
2017-12-16T16:03:20.323Z,13.30
2017-12-16T16:05:47.784Z,12.80
2017-12-16T16:08:15.240Z,12.37
2017-12-16T16:10:42.707Z,12.60
2017-12-16T16:13:10.160Z,12.53
2017-12-16T16:15:37.632Z,13.23
2017-12-16T16:18:05.089Z,13.90
2017-12-16T16:20:32.591Z,13.53
2017-12-16T16:23:00.053Z,12.97
2017-12-16T16:25:27.514Z,12.90
2017-12-16T16:27:54.989Z,12.50
2017-12-16T16:30:22.436Z,13.70
2017-12-16T16:32:49.907Z,11.43
2017-12-16T16:35:17.360Z,12.10
2017-12-16T16:37:44.856Z,12.10
2017-12-16T16:40:12.319Z,12.57
2017-12-16T16:42:39.783Z,11.80
2017-12-16T16:45:07.258Z,13.10
2017-12-16T16:47:34.711Z,11.63
2017-12-16T16:50:02.187Z,12.80
2017-12-16T16:52:29.642Z,11.03
2017-12-16T16:54:57.123Z,10.90
2017-12-16T16:57:24.612Z,11.10
2017-12-16T16:59:52.121Z,12.10
2017-12-16T17:02:19.580Z,10.20
2017-12-16T17:04:47.041Z,10.60
2017-12-16T17:07:14.503Z,10.67
2017-12-16T17:09:41.961Z,11.43
2017-12-16T17:12:09.477Z,11.13
2017-12-16T17:14:36.981Z,10.20
2017-12-16T17:17:04.443Z,10.60
2017-12-16T17:19:31.895Z,9.37
2017-12-16T17:21:59.357Z,10.90
2017-12-16T17:24:26.809Z,10.33
2017-12-16T17:26:54.279Z,11.17
2017-12-16T17:29:21.727Z,10.77
2017-12-16T17:31:49.313Z,12.90
2017-12-16T17:34:16.778Z,11.30
2017-12-16T17:36:44.240Z,11.50
2017-12-16T17:39:11.728Z,12.33
2017-12-16T17:41:39.191Z,11.00
2017-12-16T17:44:06.658Z,11.73
2017-12-16T17:46:34.108Z,11.90
2017-12-16T17:49:01.603Z,13.23
2017-12-16T17:51:29.064Z,13.47
2017-12-16T17:53:56.534Z,12.83
2017-12-16T17:56:24.016Z,12.60
2017-12-16T17:58:51.495Z,12.33
2017-12-16T18:01:18.987Z,13.73
2017-12-16T18:03:46.440Z,13.27
2017-12-16T18:06:13.910Z,14.50
2017-12-16T18:08:41.406Z,13.10
2017-12-16T18:11:08.856Z,13.23
2017-12-16T18:13:36.384Z,12.13
2017-12-16T18:16:03.873Z,13.50
2017-12-16T18:18:31.373Z,14.17
2017-12-16T18:20:58.844Z,13.30
2017-12-16T18:23:26.393Z,14.07
2017-12-16T18:25:53.977Z,13.87
2017-12-16T18:28:21.544Z,11.87
2017-12-16T18:30:49.008Z,12.80
2017-12-16T18:33:16.487Z,15.10
2017-12-16T18:35:43.959Z,14.07
2017-12-16T18:38:11.604Z,15.00
2017-12-16T18:40:39.088Z,14.60
2017-12-16T18:43:06.539Z,13.90
2017-12-16T18:45:34.044Z,16.10
2017-12-16T18:48:01.516Z,13.73
2017-12-16T18:50:29.009Z,15.97
2017-12-16T18:52:56.466Z,13.77
2017-12-16T18:55:23.925Z,14.37
2017-12-16T18:57:51.392Z,15.03
2017-12-16T19:00:18.863Z,14.83
2017-12-16T19:02:46.378Z,14.20
2017-12-16T19:05:13.828Z,18.17
2017-12-16T19:07:41.275Z,16.40
2017-12-16T19:10:08.782Z,16.47
2017-12-16T19:12:36.237Z,16.80
2017-12-16T19:15:03.691Z,16.53
2017-12-16T19:17:31.194Z,16.67
2017-12-16T19:19:58.656Z,16.33
2017-12-16T19:22:26.127Z,16.57
2017-12-16T19:24:53.631Z,17.97
2017-12-16T19:27:21.083Z,17.63
2017-12-16T19:29:48.549Z,17.10
2017-12-16T19:32:16.232Z,18.57
2017-12-16T19:34:43.696Z,16.53
2017-12-16T19:37:11.152Z,16.80
2017-12-16T19:39:38.661Z,16.67
2017-12-16T19:42:06.119Z,18.03
2017-12-16T19:44:33.610Z,18.77
2017-12-16T19:47:01.115Z,17.50
2017-12-16T19:49:28.565Z,16.70
2017-12-16T19:51:56.040Z,17.13
2017-12-16T19:54:23.511Z,16.67
2017-12-16T19:56:50.968Z,18.20
2017-12-16T19:59:18.466Z,17.57
2017-12-16T20:01:45.952Z,17.53
2017-12-16T20:04:13.407Z,19.00
2017-12-16T20:06:41.028Z,18.03
2017-12-16T20:09:08.484Z,17.10
2017-12-16T20:11:35.943Z,16.57
2017-12-16T20:14:03.472Z,17.77
2017-12-16T20:16:30.935Z,16.67
2017-12-16T20:18:58.408Z,17.00
2017-12-16T20:21:25.863Z,17.10
2017-12-16T20:23:53.363Z,15.77
2017-12-16T20:26:20.819Z,16.53
2017-12-16T20:28:48.279Z,17.50
2017-12-16T20:31:15.828Z,15.60
2017-12-16T20:33:43.289Z,18.20
2017-12-16T20:36:10.799Z,15.73
2017-12-16T20:38:38.256Z,16.80
2017-12-16T20:41:05.710Z,18.57
2017-12-16T20:43:33.210Z,16.00
2017-12-16T20:46:00.671Z,17.57
2017-12-16T20:48:28.176Z,16.83
2017-12-16T20:50:55.661Z,18.07
2017-12-16T20:53:23.110Z,16.87
2017-12-16T20:55:50.593Z,15.93
2017-12-16T20:58:18.057Z,17.60
2017-12-16T21:00:45.540Z,16.50
2017-12-16T21:03:12.991Z,17.33
2017-12-16T21:05:40.472Z,15.93
2017-12-16T21:08:07.934Z,16.03
2017-12-16T21:10:35.439Z,17.50
2017-12-16T21:13:02.902Z,17.97
2017-12-16T21:15:30.358Z,15.90
2017-12-16T21:17:57.835Z,16.13
2017-12-16T21:20:25.301Z,14.60
2017-12-16T21:22:52.780Z,16.50
2017-12-16T21:25:20.249Z,14.67
2017-12-16T21:27:47.737Z,16.87
2017-12-16T21:30:15.183Z,16.10
2017-12-16T21:32:42.667Z,15.10
2017-12-16T21:35:10.155Z,15.80
2017-12-16T21:37:37.666Z,16.13
2017-12-16T21:40:05.094Z,13.97
2017-12-16T21:42:32.722Z,14.37
2017-12-16T21:45:00.180Z,13.90
2017-12-16T21:47:27.640Z,14.30
2017-12-16T21:49:55.103Z,14.60
2017-12-16T21:52:22.547Z,14.13
2017-12-16T21:54:50.028Z,16.33
2017-12-16T21:57:17.488Z,13.90
2017-12-16T21:59:44.951Z,17.10
2017-12-16T22:02:12.427Z,14.97
2017-12-16T22:04:39.909Z,15.43
2017-12-16T22:07:07.578Z,15.47
2017-12-16T22:09:35.041Z,15.13
2017-12-16T22:12:02.495Z,14.23
2017-12-16T22:14:29.968Z,15.27
2017-12-16T22:16:57.424Z,16.30
2017-12-16T22:19:24.952Z,15.20
2017-12-16T22:21:52.438Z,15.13
2017-12-16T22:24:19.902Z,13.43
2017-12-16T22:26:47.364Z,15.77
2017-12-16T22:29:14.821Z,15.13
2017-12-16T22:31:42.421Z,14.83
2017-12-16T22:34:09.873Z,15.80
2017-12-16T22:36:37.338Z,13.63
2017-12-16T22:39:04.812Z,14.37
2017-12-16T22:41:32.267Z,14.37
2017-12-16T22:43:59.752Z,14.70
2017-12-16T22:46:27.240Z,13.30
2017-12-16T22:48:54.782Z,14.70
2017-12-16T22:51:22.257Z,13.77
2017-12-16T22:53:49.715Z,14.53
2017-12-16T22:56:17.270Z,15.73
2017-12-16T22:58:44.734Z,14.40
2017-12-16T23:01:12.252Z,14.10
2017-12-16T23:03:39.734Z,13.90
2017-12-16T23:06:07.218Z,13.90
2017-12-16T23:08:34.847Z,14.67
2017-12-16T23:11:02.320Z,13.83
2017-12-16T23:13:29.796Z,13.90
2017-12-16T23:15:57.288Z,12.63
2017-12-16T23:18:24.776Z,13.60
2017-12-16T23:20:52.246Z,14.40
2017-12-16T23:23:19.723Z,15.00
2017-12-16T23:25:47.217Z,13.87
2017-12-16T23:28:14.670Z,14.20
2017-12-16T23:30:42.155Z,14.40
2017-12-16T23:33:09.607Z,13.93
2017-12-16T23:35:37.220Z,11.93
2017-12-16T23:38:04.695Z,12.53
2017-12-16T23:40:32.207Z,11.90
2017-12-16T23:42:59.671Z,13.10
2017-12-16T23:45:27.131Z,13.37
2017-12-16T23:47:54.756Z,11.33
2017-12-16T23:50:22.211Z,11.97
2017-12-16T23:52:49.668Z,12.67
2017-12-16T23:55:17.151Z,12.50
2017-12-16T23:57:44.624Z,12.43
